Time;durP1;ratioP1;P1;durP2;ratioP2;P2;SDS_P1;SDS_P2;PMS_P1;PMS_P2;Temp;Humidity;BMP_temperature;BMP_pressure;BME280_temperature;BME280_humidity;BME280_pressure;Samples;Min_cycle;Max_cycle;Signal;HPM_P1;HPM_P2
2021/12/16 05:02:22;;;;;;;18.40;9.10;;;8.90;99.90;;;;;;5127558;23;20235;-70
2021/12/16 05:04:50;;;;;;;16.77;10.48;;;8.90;99.90;;;;;;4996239;28;20211;-70
2021/12/16 05:07:18;;;;;;;17.50;10.63;;;9.00;99.90;;;;;;4993271;28;20204;-69
2021/12/16 05:10:04;;;;;;;13.68;9.80;;;9.00;99.90;;;;;;4990171;28;20224;-69
2021/12/16 05:12:36;;;;;;;21.35;10.45;;;9.00;99.90;;;;;;4962392;28;20228;-70
2021/12/16 05:17:46;;;;;;;19.08;11.65;;;9.00;99.90;;;;;;4972644;28;20219;-70
2021/12/16 05:20:15;;;;;;;16.60;10.90;;;9.00;99.90;;;;;;4973063;28;20202;-70
2021/12/16 05:25:45;;;;;;;18.05;11.27;;;8.90;99.90;;;;;;4971960;28;20307;-70
2021/12/16 05:28:13;;;;;;;14.68;11.00;;;8.90;99.90;;;;;;4972982;28;20296;-69
2021/12/16 05:30:40;;;;;;;18.35;10.75;;;8.90;99.90;;;;;;4963559;28;20224;-69
2021/12/16 05:33:08;;;;;;;17.85;10.93;;;9.00;99.90;;;;;;4973435;28;20205;-70
2021/12/16 05:35:35;;;;;;;25.20;11.68;;;9.00;99.90;;;;;;4973193;28;20255;-69
2021/12/16 05:38:02;;;;;;;15.98;10.38;;;9.00;99.90;;;;;;4972743;28;20295;-69
2021/12/16 05:40:30;;;;;;;19.58;12.30;;;9.00;99.90;;;;;;4971987;28;20632;-69
2021/12/16 05:43:06;;;;;;;20.27;11.85;;;9.00;99.90;;;;;;4973231;28;20208;-69
2021/12/16 05:45:33;;;;;;;19.98;10.60;;;9.00;99.90;;;;;;4973112;28;20232;-69
2021/12/16 05:48:03;;;;;;;17.02;11.38;;;9.00;99.90;;;;;;4972951;28;20200;-69
2021/12/16 05:50:33;;;;;;;14.93;10.43;;;9.00;99.90;;;;;;4970282;28;20307;-69
2021/12/16 05:53:00;;;;;;;16.70;11.30;;;9.00;99.90;;;;;;4972974;28;20216;-69
2021/12/16 05:55:28;;;;;;;15.15;10.80;;;9.00;99.90;;;;;;4971794;28;20856;-69
2021/12/16 05:57:55;;;;;;;14.43;9.43;;;9.00;99.90;;;;;;4972419;28;20555;-68
2021/12/16 06:00:26;;;;;;;21.23;10.50;;;9.00;99.90;;;;;;4972332;28;20599;-69
2021/12/16 06:02:53;;;;;;;19.38;11.25;;;9.00;99.90;;;;;;4968140;28;20256;-69
2021/12/16 06:05:20;;;;;;;26.95;12.15;;;9.00;99.90;;;;;;4956673;28;20205;-68
2021/12/16 06:07:49;;;;;;;18.10;10.63;;;9.00;99.90;;;;;;4966122;28;20208;-69
2021/12/16 06:10:45;;;;;;;19.20;11.27;;;9.10;99.90;;;;;;4970995;28;20221;-69
2021/12/16 06:13:07;;;;;;;18.65;10.60;;;9.00;99.90;;;;;;4972576;28;20227;-68
2021/12/16 06:15:44;;;;;;;27.33;12.10;;;9.10;99.90;;;;;;4972086;28;20547;-68
2021/12/16 06:26:52;;;;;;;20.20;11.65;;;9.10;99.90;;;;;;4971460;28;20351;-68
2021/12/16 06:29:19;;;;;;;25.65;12.45;;;9.10;99.90;;;;;;4971966;28;20220;-69
2021/12/16 06:31:45;;;;;;;26.30;12.65;;;9.10;99.90;;;;;;4971540;28;20688;-68
2021/12/16 06:34:12;;;;;;;21.58;11.75;;;9.10;99.90;;;;;;4971535;28;20602;-68
2021/12/16 06:36:39;;;;;;;23.02;11.45;;;9.10;99.90;;;;;;4970920;28;20663;-68
2021/12/16 06:39:07;;;;;;;20.35;10.98;;;9.00;99.90;;;;;;4966704;28;20836;-68
2021/12/16 06:41:36;;;;;;;24.98;11.57;;;9.10;99.90;;;;;;4963207;28;20204;-68
2021/12/16 06:44:13;;;;;;;24.85;11.70;;;9.00;99.90;;;;;;4971592;28;20647;-68
2021/12/16 06:46:42;;;;;;;20.65;14.00;;;9.00;99.90;;;;;;4971763;28;20224;-68
2021/12/16 06:49:11;;;;;;;18.83;10.95;;;9.10;99.90;;;;;;4971414;28;20200;-68
2021/12/16 06:51:45;;;;;;;21.60;11.80;;;9.00;99.90;;;;;;4970662;28;20215;-69
2021/12/16 06:54:21;;;;;;;24.48;12.82;;;9.00;99.90;;;;;;4967322;28;20200;-68
2021/12/16 06:56:53;;;;;;;22.55;11.27;;;9.10;99.90;;;;;;4971438;28;20647;-69
2021/12/16 06:59:24;;;;;;;17.95;11.13;;;9.10;99.90;;;;;;4963537;28;20211;-68
2021/12/16 07:02:04;;;;;;;19.45;11.35;;;9.10;99.90;;;;;;4971355;28;20264;-68
2021/12/16 07:04:31;;;;;;;26.45;11.73;;;9.10;99.90;;;;;;4971397;28;20208;-70
2021/12/16 07:06:58;;;;;;;19.65;11.27;;;9.10;99.90;;;;;;4969413;28;20294;-69
2021/12/16 07:09:26;;;;;;;26.23;14.68;;;9.10;99.90;;;;;;4970341;28;20462;-70
2021/12/16 07:11:57;;;;;;;24.85;13.05;;;9.10;99.90;;;;;;4971052;28;20205;-70
2021/12/16 07:14:34;;;;;;;30.33;15.88;;;9.10;99.90;;;;;;4970987;28;20691;-70
2021/12/16 07:17:04;;;;;;;23.85;11.60;;;9.10;99.90;;;;;;4969076;28;20734;-69
2021/12/16 07:19:30;;;;;;;22.95;12.40;;;9.10;99.90;;;;;;4968712;28;20204;-71
2021/12/16 07:21:57;;;;;;;27.98;13.75;;;9.10;99.90;;;;;;4970937;28;20211;-69
2021/12/16 07:24:25;;;;;;;23.38;11.55;;;9.10;99.90;;;;;;4968992;28;20228;-69
2021/12/16 07:26:52;;;;;;;23.13;13.60;;;9.20;99.90;;;;;;4971166;28;20233;-68
2021/12/16 07:29:18;;;;;;;21.80;12.10;;;9.10;99.90;;;;;;4971413;28;20212;-69
2021/12/16 07:31:45;;;;;;;24.83;12.88;;;9.20;99.90;;;;;;4971278;28;20208;-70
2021/12/16 07:34:13;;;;;;;23.25;12.05;;;9.10;99.90;;;;;;4970278;28;20196;-69
2021/12/16 07:36:42;;;;;;;22.77;11.20;;;9.20;99.90;;;;;;4971507;28;20581;-71
2021/12/16 07:39:11;;;;;;;28.80;14.20;;;9.20;99.90;;;;;;4968807;28;20235;-68
2021/12/16 07:41:42;;;;;;;21.95;13.48;;;9.10;99.90;;;;;;4970922;28;20200;-68
2021/12/16 07:44:13;;;;;;;20.38;12.50;;;9.20;99.90;;;;;;4969040;28;20212;-69
2021/12/16 07:46:41;;;;;;;20.50;12.15;;;9.20;99.90;;;;;;4965864;28;20224;-68
2021/12/16 07:49:10;;;;;;;22.15;12.75;;;9.20;99.90;;;;;;4974663;28;20215;-69
2021/12/16 07:51:37;;;;;;;20.05;11.73;;;9.20;99.90;;;;;;4974702;28;20228;-68
2021/12/16 07:54:05;;;;;;;33.28;11.63;;;9.20;99.90;;;;;;4974515;28;20665;-68
2021/12/16 07:56:32;;;;;;;22.13;12.25;;;9.20;99.90;;;;;;4974034;28;20302;-69
2021/12/16 07:59:00;;;;;;;25.83;12.10;;;9.20;99.90;;;;;;4969022;28;20208;-69
2021/12/16 08:01:27;;;;;;;26.58;12.90;;;9.20;99.90;;;;;;4974234;28;20208;-69
2021/12/16 08:03:55;;;;;;;23.95;12.25;;;9.20;99.90;;;;;;4974359;28;20205;-69
2021/12/16 08:06:26;;;;;;;20.75;11.65;;;9.20;99.90;;;;;;4975047;28;20237;-68
2021/12/16 08:08:57;;;;;;;21.50;13.27;;;9.20;99.90;;;;;;4973733;28;20243;-68
2021/12/16 08:11:28;;;;;;;22.73;11.98;;;9.30;99.90;;;;;;4961056;28;20652;-71
2021/12/16 08:13:54;;;;;;;20.02;11.25;;;9.20;99.90;;;;;;4958596;28;20209;-68
2021/12/16 08:16:23;;;;;;;20.88;11.10;;;9.30;99.90;;;;;;4972243;28;20680;-69
2021/12/16 08:18:49;;;;;;;20.75;10.88;;;9.30;99.90;;;;;;4955881;28;20268;-68
2021/12/16 08:21:16;;;;;;;20.77;11.93;;;9.30;99.90;;;;;;4974215;28;20247;-68
2021/12/16 08:23:44;;;;;;;23.42;12.88;;;9.30;99.90;;;;;;4973888;28;20208;-68
2021/12/16 08:26:11;;;;;;;26.52;13.60;;;9.30;99.90;;;;;;4973532;28;20232;-70
2021/12/16 08:28:38;;;;;;;20.52;10.63;;;9.30;99.90;;;;;;4955236;28;20285;-69
2021/12/16 08:31:07;;;;;;;19.08;11.07;;;9.30;99.90;;;;;;4967265;28;20239;-69
2021/12/16 08:33:35;;;;;;;21.05;11.40;;;9.30;99.90;;;;;;4973413;28;20217;-70
2021/12/16 08:36:04;;;;;;;25.88;14.80;;;9.30;99.90;;;;;;4973342;28;20454;-69
2021/12/16 08:38:31;;;;;;;30.23;15.20;;;9.30;99.90;;;;;;4973104;28;21153;-68
2021/12/16 08:41:05;;;;;;;27.60;13.20;;;9.40;99.90;;;;;;4972567;28;20585;-69
2021/12/16 08:43:32;;;;;;;22.80;12.23;;;9.40;99.90;;;;;;4973390;28;20212;-69
2021/12/16 08:45:59;;;;;;;18.77;11.73;;;9.40;99.90;;;;;;4971677;28;20233;-68
2021/12/16 08:48:27;;;;;;;19.75;11.15;;;9.30;99.90;;;;;;4965005;28;20239;-68
2021/12/16 08:50:56;;;;;;;22.60;11.35;;;9.40;99.90;;;;;;4955053;29;20315;-69
2021/12/16 08:53:23;;;;;;;27.35;12.02;;;9.30;99.90;;;;;;4954451;28;20209;-69
2021/12/16 08:55:54;;;;;;;31.65;15.77;;;9.30;99.90;;;;;;4966574;28;20306;-68
2021/12/16 08:58:21;;;;;;;32.30;13.95;;;9.30;99.90;;;;;;4973847;28;20291;-68
2021/12/16 09:00:53;;;;;;;24.00;12.48;;;9.40;99.90;;;;;;4973187;28;20629;-69
2021/12/16 09:03:20;;;;;;;28.73;11.63;;;9.40;99.90;;;;;;4974117;28;20223;-69
2021/12/16 09:05:46;;;;;;;22.83;12.60;;;9.40;99.90;;;;;;4973856;28;20224;-68
2021/12/16 09:08:14;;;;;;;24.52;12.25;;;9.40;99.90;;;;;;4974212;28;20216;-69
2021/12/16 09:10:41;;;;;;;20.48;10.48;;;9.40;99.90;;;;;;4973253;28;20224;-68
2021/12/16 09:13:14;;;;;;;20.85;11.88;;;9.40;99.90;;;;;;4974289;28;20259;-70
2021/12/16 09:15:45;;;;;;;22.10;11.15;;;9.40;99.90;;;;;;4973980;28;20271;-67
2021/12/16 09:18:13;;;;;;;21.38;10.85;;;9.40;99.90;;;;;;4974265;28;20212;-70
2021/12/16 09:20:40;;;;;;;21.52;11.90;;;9.50;99.90;;;;;;4973931;28;20308;-69
2021/12/16 09:23:08;;;;;;;17.27;10.00;;;9.50;99.90;;;;;;4973952;28;20208;-69
2021/12/16 09:25:37;;;;;;;19.60;11.70;;;9.50;99.90;;;;;;4967360;28;20232;-69
2021/12/16 09:28:04;;;;;;;20.10;10.10;;;9.50;99.90;;;;;;4954148;28;20209;-68
2021/12/16 09:30:34;;;;;;;19.30;11.00;;;9.50;99.90;;;;;;4953883;28;20609;-67
2021/12/16 09:33:03;;;;;;;16.83;10.15;;;9.60;99.90;;;;;;4954282;28;20205;-68
2021/12/16 09:35:34;;;;;;;20.65;11.02;;;9.60;99.90;;;;;;4962071;28;20228;-69
2021/12/16 09:38:01;;;;;;;18.42;10.80;;;9.60;99.90;;;;;;4973386;28;20291;-69
2021/12/16 09:40:34;;;;;;;20.38;10.80;;;9.60;99.90;;;;;;4972323;28;20220;-69
2021/12/16 09:43:04;;;;;;;18.35;9.80;;;9.60;99.90;;;;;;4973444;28;20208;-69
2021/12/16 09:45:30;;;;;;;14.75;9.70;;;9.60;99.90;;;;;;4972872;28;20279;-68
2021/12/16 09:47:57;;;;;;;18.67;10.43;;;9.70;99.90;;;;;;4973310;28;20209;-67
2021/12/16 09:50:27;;;;;;;18.85;10.55;;;9.70;99.90;;;;;;4968949;28;20674;-68
2021/12/16 09:52:55;;;;;;;15.32;8.80;;;9.70;99.90;;;;;;4973187;28;20263;-69
2021/12/16 09:55:22;;;;;;;21.17;10.45;;;9.70;99.90;;;;;;4972428;28;20201;-69
2021/12/16 09:57:50;;;;;;;16.15;10.50;;;9.70;99.90;;;;;;4972905;28;20694;-70
2021/12/16 10:00:22;;;;;;;17.00;11.48;;;9.70;99.90;;;;;;4972678;28;20216;-68
2021/12/16 10:02:50;;;;;;;19.38;10.48;;;9.70;99.90;;;;;;4972492;28;20687;-67
2021/12/16 10:05:19;;;;;;;19.52;9.23;;;9.70;99.90;;;;;;4972725;28;20204;-68
2021/12/16 10:07:46;;;;;;;16.42;10.23;;;9.70;99.90;;;;;;4972670;28;20708;-68
2021/12/16 10:10:16;;;;;;;16.60;10.10;;;9.70;99.90;;;;;;4971806;28;20208;-69
2021/12/16 10:12:45;;;;;;;15.88;9.82;;;9.70;99.90;;;;;;4972563;28;20282;-69
2021/12/16 10:18:05;;;;;;;16.95;9.65;;;9.80;99.90;;;;;;4953302;29;20224;-69
2021/12/16 10:20:36;;;;;;;13.68;9.75;;;9.90;99.90;;;;;;4959087;28;20277;-69
2021/12/16 10:23:06;;;;;;;19.48;9.80;;;9.80;99.90;;;;;;4965849;28;20228;-68
2021/12/16 10:25:35;;;;;;;16.65;7.65;;;9.90;99.90;;;;;;4952353;28;20228;-69
2021/12/16 10:28:07;;;;;;;12.02;7.60;;;9.90;99.90;;;;;;4953620;28;20586;-69
2021/12/16 10:30:54;;;;;;;11.35;8.13;;;9.90;99.90;;;;;;4959355;28;20217;-69
2021/12/16 10:33:28;;;;;;;9.77;7.22;;;9.90;99.90;;;;;;4972486;28;20208;-68
2021/12/16 10:36:02;;;;;;;12.68;7.85;;;10.00;99.90;;;;;;4972274;28;20644;-69
2021/12/16 10:38:29;;;;;;;10.70;7.20;;;10.00;99.90;;;;;;4972124;28;20266;-69
2021/12/16 10:40:57;;;;;;;10.25;6.78;;;10.00;99.90;;;;;;4971741;28;20232;-68
2021/12/16 10:43:28;;;;;;;11.07;6.57;;;10.00;99.90;;;;;;4972280;28;20308;-67
2021/12/16 10:45:59;;;;;;;10.85;7.00;;;10.00;99.90;;;;;;4972301;28;20232;-67
2021/12/16 10:48:30;;;;;;;8.27;6.30;;;10.10;99.90;;;;;;4972180;28;20728;-67
2021/12/16 10:51:03;;;;;;;8.40;6.15;;;10.10;99.90;;;;;;4971505;28;20266;-69
2021/12/16 10:53:50;;;;;;;7.35;5.80;;;10.20;99.90;;;;;;4953276;28;20205;-70
2021/12/16 10:56:20;;;;;;;6.35;5.75;;;10.20;99.90;;;;;;4952507;28;20233;-68
2021/12/16 10:58:53;;;;;;;8.15;6.32;;;10.20;99.90;;;;;;4952853;28;20218;-69
2021/12/16 11:01:43;;;;;;;5.82;4.80;;;10.30;99.90;;;;;;4964898;28;20219;-69
2021/12/16 11:04:15;;;;;;;4.72;4.32;;;10.30;99.90;;;;;;4972191;28;20216;-70
2021/12/16 11:06:47;;;;;;;6.78;4.70;;;10.30;99.90;;;;;;4972035;28;20228;-68
2021/12/16 11:09:30;;;;;;;8.30;5.05;;;10.30;99.90;;;;;;4971653;28;20677;-68
2021/12/16 11:12:22;;;;;;;7.18;5.13;;;10.20;99.90;;;;;;4971479;28;20221;-68
2021/12/16 11:14:51;;;;;;;6.45;4.40;;;10.20;99.90;;;;;;4971877;28;20213;-70
2021/12/16 11:17:20;;;;;;;7.07;5.78;;;10.10;99.90;;;;;;4992233;23;20314;-70
2021/12/16 11:19:57;;;;;;;5.85;5.35;;;10.00;99.90;;;;;;4990933;28;20199;-70
2021/12/16 11:22:29;;;;;;;9.63;4.97;;;10.00;99.90;;;;;;4990839;28;20235;-70
2021/12/16 11:24:56;;;;;;;7.38;4.65;;;9.90;99.90;;;;;;4990347;28;20307;-70
2021/12/16 11:27:27;;;;;;;4.85;4.20;;;9.80;99.90;;;;;;4991013;28;20224;-70
2021/12/16 11:29:54;;;;;;;7.75;5.07;;;9.80;99.90;;;;;;4991277;28;20274;-70
2021/12/16 11:32:40;;;;;;;6.47;5.22;;;9.70;99.90;;;;;;4971384;28;20640;-69
2021/12/16 11:35:38;;;;;;;5.70;4.78;;;9.70;99.90;;;;;;4971778;28;20591;-69
2021/12/16 11:38:13;;;;;;;6.88;5.38;;;9.60;99.90;;;;;;4971785;28;20357;-70
2021/12/16 11:40:55;;;;;;;6.95;5.97;;;9.60;99.90;;;;;;4965349;28;20201;-69
2021/12/16 11:43:32;;;;;;;6.35;5.70;;;9.70;99.90;;;;;;4952634;28;20205;-69
2021/12/16 11:45:59;;;;;;;9.57;6.13;;;9.70;99.90;;;;;;4952403;28;20252;-69
2021/12/16 11:48:33;;;;;;;8.40;5.43;;;9.70;99.90;;;;;;4952206;28;20296;-69
2021/12/16 11:51:11;;;;;;;7.15;5.68;;;9.70;99.90;;;;;;4958899;28;20228;-69
2021/12/16 11:53:42;;;;;;;8.00;6.13;;;9.70;99.90;;;;;;4967191;28;20978;-71
2021/12/16 11:56:10;;;;;;;6.28;5.70;;;9.60;99.90;;;;;;4962304;28;20684;-70
2021/12/16 11:58:37;;;;;;;9.68;6.85;;;9.70;99.90;;;;;;4956313;28;20217;-69
2021/12/16 12:01:15;;;;;;;6.95;6.10;;;9.70;99.90;;;;;;4959477;28;20204;-69
2021/12/16 12:03:42;;;;;;;7.38;6.03;;;9.70;99.90;;;;;;4959011;28;20663;-70
2021/12/16 12:06:24;;;;;;;6.32;5.00;;;9.80;99.90;;;;;;4954117;28;20602;-69
2021/12/16 12:08:53;;;;;;;6.32;5.82;;;9.80;99.90;;;;;;4970001;28;20209;-70
2021/12/16 12:11:23;;;;;;;7.53;5.28;;;9.80;99.90;;;;;;4957835;28;20599;-70
2021/12/16 12:13:54;;;;;;;5.57;5.13;;;9.80;99.90;;;;;;4971114;28;20677;-70
2021/12/16 12:16:24;;;;;;;10.50;5.97;;;9.80;99.90;;;;;;4969536;28;20268;-69
2021/12/16 12:18:54;;;;;;;9.52;5.38;;;9.80;99.90;;;;;;4963446;28;20209;-69
2021/12/16 12:21:32;;;;;;;9.77;6.38;;;9.80;99.90;;;;;;4959292;28;20201;-70
2021/12/16 12:24:02;;;;;;;7.70;6.38;;;9.70;99.90;;;;;;4974568;28;20292;-70
2021/12/16 12:26:30;;;;;;;5.65;5.15;;;9.70;99.90;;;;;;4961284;28;20200;-69
2021/12/16 12:28:59;;;;;;;6.70;5.97;;;9.70;99.90;;;;;;4969257;28;20665;-70
2021/12/16 12:31:30;;;;;;;9.48;6.75;;;9.70;99.90;;;;;;4967408;28;20554;-69
2021/12/16 12:33:57;;;;;;;5.20;4.75;;;9.70;99.90;;;;;;4964613;28;20213;-69
2021/12/16 12:36:26;;;;;;;5.57;4.88;;;9.80;99.90;;;;;;4966664;28;20200;-68
2021/12/16 12:38:53;;;;;;;5.00;4.65;;;9.80;99.90;;;;;;4969593;28;20352;-69
2021/12/16 12:41:21;;;;;;;5.35;4.47;;;9.70;99.90;;;;;;4956243;28;20208;-69
2021/12/16 12:43:48;;;;;;;6.20;5.18;;;9.70;99.90;;;;;;4965222;28;20641;-69
2021/12/16 12:46:15;;;;;;;8.57;4.88;;;9.70;99.90;;;;;;4968059;28;20202;-69
2021/12/16 12:48:43;;;;;;;7.68;6.82;;;9.70;99.90;;;;;;4964622;28;20304;-69
2021/12/16 12:51:11;;;;;;;5.50;4.78;;;9.70;99.90;;;;;;4960147;28;20205;-69
2021/12/16 12:53:47;;;;;;;5.93;5.38;;;9.70;99.90;;;;;;4965826;28;20289;-69
2021/12/16 12:56:22;;;;;;;6.68;5.88;;;9.70;99.90;;;;;;4955143;28;20399;-69
2021/12/16 12:58:53;;;;;;;6.88;6.20;;;9.70;99.90;;;;;;4955755;28;20275;-69
2021/12/16 13:01:34;;;;;;;7.05;5.05;;;9.70;99.90;;;;;;4973721;28;20200;-70
2021/12/16 13:04:04;;;;;;;7.43;4.95;;;9.70;99.90;;;;;;4965798;28;20208;-69
2021/12/16 13:06:31;;;;;;;6.22;5.30;;;9.70;99.90;;;;;;4967164;28;20681;-69
2021/12/16 13:09:03;;;;;;;5.13;4.18;;;9.70;99.90;;;;;;4971844;28;20201;-70
2021/12/16 13:11:31;;;;;;;4.07;3.78;;;9.70;99.90;;;;;;4969814;28;20249;-69
2021/12/16 13:14:15;;;;;;;4.57;4.28;;;9.80;99.90;;;;;;4955667;28;20213;-70
2021/12/16 13:17:00;;;;;;;4.97;3.78;;;9.80;99.90;;;;;;4958063;28;20241;-69
2021/12/16 13:25:44;;;;;;;4.05;3.65;;;9.80;99.90;;;;;;4970480;28;20211;-71
2021/12/16 13:28:13;;;;;;;3.35;3.10;;;9.80;99.90;;;;;;4972452;28;20306;-71
2021/12/16 13:30:52;;;;;;;5.25;3.28;;;9.80;99.90;;;;;;4984767;28;20230;-70
2021/12/16 13:33:23;;;;;;;4.68;3.22;;;9.80;99.90;;;;;;4969379;28;20255;-70
2021/12/16 13:36:01;;;;;;;2.90;2.80;;;9.80;99.90;;;;;;4970157;28;20205;-70
2021/12/16 13:38:37;;;;;;;3.10;2.30;;;9.80;99.90;;;;;;4962415;28;20693;-72
2021/12/16 13:41:10;;;;;;;1.90;1.90;;;9.80;99.90;;;;;;4975449;28;20223;-70
2021/12/16 13:43:38;;;;;;;5.18;1.73;;;9.80;99.90;;;;;;4974645;28;20657;-70
2021/12/16 13:46:26;;;;;;;3.25;2.50;;;9.70;99.90;;;;;;4974055;28;20196;-71
2021/12/16 13:58:08;;;;;;;2.33;2.20;;;9.80;99.90;;;;;;4970676;28;20204;-71
2021/12/16 14:03:20;;;;;;;6.05;3.45;;;9.50;99.90;;;;;;4957170;28;20199;-72
2021/12/16 14:05:58;;;;;;;2.30;2.10;;;9.50;99.90;;;;;;4973885;28;20255;-72
2021/12/16 14:08:33;;;;;;;7.20;3.35;;;9.50;99.90;;;;;;4959565;28;20229;-71
2021/12/16 14:11:15;;;;;;;2.95;2.55;;;9.50;99.90;;;;;;4954046;28;20291;-71
2021/12/16 14:14:21;;;;;;;2.35;2.00;;;9.50;99.90;;;;;;4954675;28;20212;-72
2021/12/16 14:17:09;;;;;;;4.60;2.22;;;9.40;99.90;;;;;;4965695;28;20659;-72
2021/12/16 14:25:28;;;;;;;3.40;2.72;;;9.40;99.90;;;;;;4953438;29;20208;-72
2021/12/16 14:31:44;;;;;;;6.65;2.78;;;9.40;99.90;;;;;;4943424;29;20208;-72
2021/12/16 14:37:21;;;;;;;3.40;1.90;;;9.40;99.90;;;;;;4920780;29;20292;-71
2021/12/16 14:42:44;;;;;;;8.60;2.80;;;9.30;99.90;;;;;;4959199;28;20227;-71
2021/12/16 14:45:26;;;;;;;3.22;3.08;;;9.30;99.90;;;;;;4957583;28;20204;-71
2021/12/16 14:48:20;;;;;;;4.10;2.20;;;9.30;99.90;;;;;;4968198;28;20343;-70
2021/12/16 14:50:50;;;;;;;3.38;3.08;;;9.20;99.90;;;;;;4975791;28;20212;-70
2021/12/16 14:53:21;;;;;;;7.78;4.22;;;9.10;99.90;;;;;;4976158;28;20239;-72
2021/12/16 14:55:49;;;;;;;3.20;2.88;;;9.10;99.90;;;;;;4974033;28;20208;-71
2021/12/16 14:58:20;;;;;;;2.83;2.58;;;9.10;99.90;;;;;;4971250;28;20220;-72
2021/12/16 15:00:51;;;;;;;4.28;2.50;;;9.00;99.90;;;;;;4953661;28;20208;-71
2021/12/16 15:03:22;;;;;;;4.28;2.75;;;9.00;99.90;;;;;;4953805;28;20210;-71
2021/12/16 15:05:51;;;;;;;3.70;3.40;;;9.00;99.90;;;;;;4964362;28;20209;-72
2021/12/16 15:08:26;;;;;;;2.67;2.50;;;9.00;99.90;;;;;;4971567;28;20291;-73
2021/12/16 15:10:54;;;;;;;3.55;2.85;;;9.00;99.90;;;;;;4961419;28;20210;-70
2021/12/16 15:13:26;;;;;;;2.40;2.30;;;9.00;99.90;;;;;;4958427;28;20225;-70
2021/12/16 15:16:13;;;;;;;2.60;2.40;;;8.90;99.90;;;;;;4965832;28;20205;-70
2021/12/16 15:35:54;;;;;;;4.78;4.35;;;8.70;99.90;;;;;;4965668;28;20201;-73
2021/12/16 15:38:43;;;;;;;6.68;3.80;;;8.70;99.90;;;;;;4956989;28;20228;-71
2021/12/16 15:43:56;;;;;;;2.70;2.42;;;8.60;99.90;;;;;;4957114;28;20264;-71
2021/12/16 15:46:27;;;;;;;5.45;3.50;;;8.60;99.90;;;;;;4953127;28;20209;-71
2021/12/16 15:48:54;;;;;;;5.85;3.20;;;8.50;99.90;;;;;;4960195;28;20200;-71
2021/12/16 15:51:24;;;;;;;5.85;3.60;;;8.50;99.90;;;;;;4970868;28;20664;-70
2021/12/16 15:53:55;;;;;;;5.25;3.25;;;8.50;99.90;;;;;;4962549;28;20740;-69
2021/12/16 15:56:26;;;;;;;6.35;3.70;;;8.40;99.90;;;;;;4962955;28;20189;-70
2021/12/16 15:58:57;;;;;;;5.22;2.80;;;8.40;99.90;;;;;;4952134;28;20205;-70
2021/12/16 16:01:29;;;;;;;6.55;4.25;;;8.40;99.90;;;;;;4952842;28;20296;-70
2021/12/16 16:03:56;;;;;;;9.02;4.80;;;8.40;99.90;;;;;;4952398;28;20205;-69
2021/12/16 16:06:24;;;;;;;6.10;4.15;;;8.30;99.90;;;;;;4965726;28;20208;-70
2021/12/16 16:08:53;;;;;;;5.32;4.70;;;8.30;99.90;;;;;;4972005;28;20203;-70
2021/12/16 16:11:24;;;;;;;8.27;4.53;;;8.30;99.90;;;;;;4957884;28;20208;-70
2021/12/16 16:13:57;;;;;;;10.68;4.55;;;8.30;99.90;;;;;;4961779;28;20225;-70
2021/12/16 16:16:30;;;;;;;9.85;5.82;;;8.20;99.90;;;;;;4971505;28;20710;-70
2021/12/16 16:19:00;;;;;;;6.03;4.55;;;8.20;99.90;;;;;;4967381;28;20669;-70
2021/12/16 16:21:31;;;;;;;8.75;5.35;;;8.20;99.90;;;;;;4954682;28;20205;-71
2021/12/16 16:24:02;;;;;;;11.68;4.60;;;8.10;99.90;;;;;;4962667;28;20336;-70
2021/12/16 16:26:30;;;;;;;5.05;3.67;;;8.10;99.90;;;;;;4964205;28;20581;-71
2021/12/16 16:29:05;;;;;;;10.05;4.47;;;8.00;99.90;;;;;;4969151;28;20205;-71
2021/12/16 16:31:33;;;;;;;12.05;3.90;;;8.00;99.90;;;;;;4954925;28;20217;-69
2021/12/16 16:34:01;;;;;;;10.13;7.20;;;7.90;99.90;;;;;;4956995;28;20324;-70
2021/12/16 16:36:31;;;;;;;9.48;5.78;;;7.90;99.90;;;;;;4958801;28;20511;-70
2021/12/16 16:39:00;;;;;;;11.50;7.82;;;7.90;99.90;;;;;;4977315;28;20204;-70
2021/12/16 16:41:29;;;;;;;12.20;7.53;;;7.90;99.90;;;;;;4971570;28;20212;-69
2021/12/16 16:43:59;;;;;;;13.98;7.50;;;7.90;99.90;;;;;;4974206;28;20685;-69
2021/12/16 16:46:30;;;;;;;6.60;6.00;;;7.90;99.90;;;;;;4963133;28;20209;-70
2021/12/16 16:49:05;;;;;;;11.52;6.60;;;7.90;99.90;;;;;;4973448;28;20295;-70
2021/12/16 16:51:38;;;;;;;9.45;7.43;;;7.90;99.90;;;;;;4967357;28;20223;-69
2021/12/16 16:54:15;;;;;;;12.65;6.93;;;8.00;99.90;;;;;;4968767;28;20696;-69
2021/12/16 16:56:48;;;;;;;16.08;11.77;;;8.00;99.90;;;;;;4955725;28;20228;-69
2021/12/16 16:59:20;;;;;;;14.32;9.05;;;8.00;99.90;;;;;;4972909;28;20768;-71
2021/12/16 17:01:47;;;;;;;9.20;5.40;;;8.00;99.90;;;;;;4967115;28;20209;-71
2021/12/16 17:04:16;;;;;;;13.82;7.05;;;8.00;99.90;;;;;;4956276;28;20397;-69
2021/12/16 17:06:48;;;;;;;8.27;6.13;;;8.00;99.90;;;;;;4968477;28;20228;-70
2021/12/16 17:09:16;;;;;;;7.70;6.20;;;8.10;99.90;;;;;;4956866;28;20205;-71
2021/12/16 17:11:45;;;;;;;8.18;7.15;;;8.10;99.90;;;;;;4960673;28;20204;-70
2021/12/16 17:14:15;;;;;;;8.32;6.45;;;8.10;99.90;;;;;;4966925;28;20228;-70
2021/12/16 17:19:33;;;;;;;9.93;7.00;;;8.10;99.90;;;;;;5001307;23;20349;-68
2021/12/16 17:22:03;;;;;;;7.20;5.70;;;8.10;99.90;;;;;;4999333;28;20694;-69
2021/12/16 17:24:33;;;;;;;5.85;5.05;;;8.10;99.90;;;;;;5011832;28;20593;-68
2021/12/16 17:27:03;;;;;;;6.25;4.50;;;8.10;99.90;;;;;;4994159;28;20199;-69
2021/12/16 17:29:33;;;;;;;12.85;5.40;;;8.10;99.90;;;;;;5003591;28;20229;-67
2021/12/16 17:32:02;;;;;;;9.13;5.55;;;8.20;99.90;;;;;;4995552;28;20207;-68
2021/12/16 17:34:32;;;;;;;9.98;4.30;;;8.20;99.90;;;;;;5012309;28;20238;-69
2021/12/16 17:37:05;;;;;;;4.88;4.28;;;8.20;99.90;;;;;;5003788;28;20279;-67
2021/12/16 17:39:35;;;;;;;10.38;4.65;;;8.20;99.90;;;;;;5010049;28;20298;-71
2021/12/16 17:42:06;;;;;;;4.78;4.28;;;8.20;99.90;;;;;;5011636;28;20580;-69
2021/12/16 17:44:34;;;;;;;4.85;3.88;;;8.20;99.90;;;;;;5001803;28;20200;-69
2021/12/16 17:47:05;;;;;;;8.13;4.82;;;8.20;99.90;;;;;;5003878;28;20242;-69
2021/12/16 17:49:33;;;;;;;6.95;6.10;;;8.20;99.90;;;;;;5012102;28;20521;-73
2021/12/16 17:52:01;;;;;;;6.80;5.50;;;8.20;99.90;;;;;;5012269;28;20211;-69
2021/12/16 17:54:29;;;;;;;6.78;5.93;;;8.30;99.90;;;;;;5005276;28;20238;-69
2021/12/16 17:56:58;;;;;;;6.40;5.03;;;8.20;99.90;;;;;;4998434;28;20230;-68
2021/12/16 17:59:32;;;;;;;9.13;4.60;;;8.20;99.90;;;;;;5002045;28;20227;-68
2021/12/16 18:02:01;;;;;;;9.15;4.97;;;8.20;99.90;;;;;;4993891;28;20219;-69
2021/12/16 18:04:28;;;;;;;5.32;4.40;;;8.20;99.90;;;;;;5004507;28;20203;-68
2021/12/16 18:06:59;;;;;;;6.40;5.20;;;8.10;99.90;;;;;;4995667;28;20230;-69
2021/12/16 18:09:30;;;;;;;6.25;5.05;;;8.10;99.90;;;;;;5005055;28;20239;-68
2021/12/16 18:12:01;;;;;;;6.15;5.63;;;8.00;99.90;;;;;;5002065;28;20234;-69
2021/12/16 18:14:31;;;;;;;11.35;5.90;;;8.00;99.90;;;;;;5007475;28;20223;-68
2021/12/16 18:17:00;;;;;;;5.07;4.57;;;8.00;99.90;;;;;;5000896;28;20663;-69
2021/12/16 18:19:30;;;;;;;6.35;4.25;;;8.00;99.90;;;;;;5008518;28;20227;-69
2021/12/16 18:22:00;;;;;;;5.53;4.85;;;7.90;99.90;;;;;;5008000;28;20208;-68
2021/12/16 18:24:35;;;;;;;6.78;5.30;;;7.90;99.90;;;;;;5004018;28;20616;-68
2021/12/16 18:27:03;;;;;;;7.30;5.25;;;7.80;99.90;;;;;;5010468;28;20261;-68
2021/12/16 18:29:34;;;;;;;5.68;5.35;;;7.80;99.90;;;;;;5006918;28;20231;-69
2021/12/16 18:32:01;;;;;;;8.90;5.72;;;7.70;99.90;;;;;;5009097;28;20254;-68
2021/12/16 18:34:30;;;;;;;6.55;5.90;;;7.70;99.90;;;;;;5011063;28;20234;-68
2021/12/16 18:37:01;;;;;;;7.82;5.93;;;7.70;99.90;;;;;;4997766;28;20204;-69
2021/12/16 18:39:31;;;;;;;11.27;7.82;;;7.60;99.90;;;;;;4995938;28;20223;-68
2021/12/16 18:42:02;;;;;;;8.27;6.30;;;7.60;99.90;;;;;;5009119;28;20203;-69
2021/12/16 18:44:32;;;;;;;10.50;6.90;;;7.60;99.90;;;;;;5002716;28;20204;-69
2021/12/16 18:47:00;;;;;;;11.32;7.95;;;7.50;99.90;;;;;;5010837;28;20217;-69
2021/12/16 18:49:34;;;;;;;14.85;9.45;;;7.50;99.90;;;;;;5010837;28;20287;-69
2021/12/16 18:52:13;;;;;;;13.02;7.72;;;7.50;99.90;;;;;;5010690;28;20278;-69
2021/12/16 18:54:40;;;;;;;9.57;8.45;;;7.50;99.90;;;;;;5011072;28;20219;-69
2021/12/16 18:57:13;;;;;;;10.98;7.70;;;7.50;99.90;;;;;;5010137;28;20203;-70
2021/12/16 18:59:42;;;;;;;10.45;6.75;;;7.40;99.90;;;;;;5005949;28;20851;-69
2021/12/16 19:02:13;;;;;;;10.90;7.13;;;7.50;99.90;;;;;;4998814;28;20199;-67
2021/12/16 19:04:43;;;;;;;8.18;6.45;;;7.40;99.90;;;;;;5003005;28;20203;-69
2021/12/16 19:07:14;;;;;;;10.70;8.90;;;7.40;99.90;;;;;;5003663;28;20230;-69
2021/12/16 19:09:41;;;;;;;8.55;6.50;;;7.50;99.90;;;;;;5000642;28;20231;-69
2021/12/16 19:12:15;;;;;;;10.68;7.43;;;7.50;99.90;;;;;;5006855;28;20207;-70
2021/12/16 19:14:44;;;;;;;7.72;6.97;;;7.40;99.90;;;;;;5008176;28;20246;-70
2021/12/16 19:17:13;;;;;;;7.47;6.05;;;7.50;99.90;;;;;;5006078;28;20230;-70
2021/12/16 19:19:40;;;;;;;10.70;7.22;;;7.50;99.90;;;;;;5006620;28;20243;-70
2021/12/16 19:22:11;;;;;;;20.52;8.35;;;7.50;99.90;;;;;;5007390;28;20211;-70